Time;durP1;ratioP1;P1;durP2;ratioP2;P2;SDS_P1;SDS_P2;PMS_P1;PMS_P2;Temp;Humidity;BMP_temperature;BMP_pressure;BME280_temperature;BME280_humidity;BME280_pressure;Samples;Min_cycle;Max_cycle;Signal;HPM_P1;HPM_P2
2024/01/01 00:00:52;;;;;;;62.55;37.42;;;;;;;;;;4969435;28;20077;-91
2024/01/01 00:03:18;;;;;;;48.45;28.40;;;;;;;;;;4994511;28;20057;-90
2024/01/01 00:05:44;;;;;;;48.30;29.45;;;;;;;;;;4961815;28;20045;-92
2024/01/01 00:08:10;;;;;;;60.50;35.22;;;;;;;;;;4967578;28;20073;-92
2024/01/01 00:10:36;;;;;;;52.03;32.67;;;;;;;;;;4983264;28;20128;-91
2024/01/01 00:13:03;;;;;;;47.42;31.13;;;;;;;;;;4982297;28;20109;-90
2024/01/01 00:15:29;;;;;;;59.38;36.10;;;;;;;;;;4980878;28;20084;-89
2024/01/01 00:17:55;;;;;;;63.70;36.90;;;;;;;;;;4980674;28;20042;-91
2024/01/01 00:20:21;;;;;;;51.28;26.80;;;;;;;;;;4983948;28;20041;-92
2024/01/01 00:22:49;;;;;;;41.00;25.17;;;;;;;;;;4969403;28;20050;-93
2024/01/01 00:25:15;;;;;;;45.83;25.88;;;;;;;;;;4967335;28;20042;-92
2024/01/01 00:27:41;;;;;;;44.65;25.08;;;;;;;;;;4981023;28;20402;-93
2024/01/01 00:30:07;;;;;;;44.97;24.40;;;;;;;;;;4982850;28;20034;-93
2024/01/01 00:32:36;;;;;;;45.10;22.25;;;;;;;;;;4968200;28;20038;-93
2024/01/01 00:35:02;;;;;;;43.05;25.85;;;;;;;;;;4982225;28;20034;-93
2024/01/01 00:37:28;;;;;;;48.58;25.90;;;;;;;;;;4987289;28;20037;-93
2024/01/01 00:39:55;;;;;;;39.80;25.73;;;;;;;;;;4985461;28;20412;-86
2024/01/01 00:42:21;;;;;;;63.58;36.97;;;;;;;;;;4976142;28;20046;-86
2024/01/01 00:44:47;;;;;;;67.47;41.72;;;;;;;;;;4974043;28;20124;-86
2024/01/01 00:47:13;;;;;;;50.55;32.00;;;;;;;;;;4978402;28;20038;-87
2024/01/01 00:49:40;;;;;;;60.47;38.90;;;;;;;;;;4977091;28;20128;-85
2024/01/01 00:52:06;;;;;;;51.40;32.45;;;;;;;;;;4968147;28;20058;-84
2024/01/01 00:54:32;;;;;;;61.90;32.05;;;;;;;;;;4976110;28;20042;-85
2024/01/01 00:56:59;;;;;;;46.67;26.45;;;;;;;;;;4961931;28;20353;-85
2024/01/01 00:59:25;;;;;;;46.45;26.95;;;;;;;;;;4973672;28;20041;-85
2024/01/01 01:01:51;;;;;;;50.60;27.27;;;;;;;;;;4975584;28;20052;-86
2024/01/01 01:04:17;;;;;;;42.20;26.45;;;;;;;;;;4961666;28;20042;-85
2024/01/01 01:06:45;;;;;;;43.53;25.65;;;;;;;;;;4977101;28;20045;-83
2024/01/01 01:09:11;;;;;;;51.63;26.10;;;;;;;;;;4961008;28;20042;-86
2024/01/01 01:11:40;;;;;;;40.47;25.33;;;;;;;;;;4995920;28;20044;-85
2024/01/01 01:14:06;;;;;;;45.13;27.48;;;;;;;;;;4983129;28;20045;-86
2024/01/01 01:16:32;;;;;;;45.15;26.33;;;;;;;;;;4992390;28;20052;-86
2024/01/01 01:18:59;;;;;;;43.28;23.58;;;;;;;;;;4979450;28;20038;-86
2024/01/01 01:21:26;;;;;;;50.03;25.83;;;;;;;;;;4962542;28;20603;-86
2024/01/01 01:23:52;;;;;;;46.58;29.35;;;;;;;;;;4973267;28;20038;-87
2024/01/01 01:26:18;;;;;;;48.58;28.05;;;;;;;;;;4978371;28;20045;-84
2024/01/01 01:28:45;;;;;;;59.63;32.88;;;;;;;;;;4986928;28;20046;-86
2024/01/01 01:31:11;;;;;;;49.33;28.25;;;;;;;;;;4978533;28;20041;-87
2024/01/01 01:33:37;;;;;;;65.25;36.80;;;;;;;;;;4964864;28;20604;-85
2024/01/01 01:36:03;;;;;;;68.43;37.28;;;;;;;;;;4973531;28;20045;-88
2024/01/01 01:38:30;;;;;;;58.15;36.88;;;;;;;;;;4976951;28;20416;-87
2024/01/01 01:40:56;;;;;;;60.70;33.63;;;;;;;;;;4992791;28;20042;-87
2024/01/01 01:43:23;;;;;;;64.40;36.58;;;;;;;;;;4976613;28;20121;-86
2024/01/01 01:45:50;;;;;;;62.35;34.22;;;;;;;;;;4976495;28;20374;-87
2024/01/01 01:48:17;;;;;;;61.63;36.00;;;;;;;;;;4973838;28;20041;-86
2024/01/01 01:50:47;;;;;;;73.43;40.60;;;;;;;;;;4997603;28;20086;-91
2024/01/01 01:53:13;;;;;;;60.22;37.17;;;;;;;;;;4961251;28;20073;-90
2024/01/01 01:55:44;;;;;;;61.83;36.13;;;;;;;;;;4981029;28;20042;-92
2024/01/01 01:58:10;;;;;;;70.25;37.00;;;;;;;;;;4974330;28;20046;-92
2024/01/01 02:00:37;;;;;;;57.53;34.15;;;;;;;;;;4977771;28;20069;-91
2024/01/01 02:03:04;;;;;;;70.63;37.75;;;;;;;;;;4994687;28;20045;-92
2024/01/01 02:05:30;;;;;;;56.67;32.95;;;;;;;;;;4975095;28;20049;-92
2024/01/01 02:07:56;;;;;;;54.08;32.05;;;;;;;;;;4978819;28;20133;-92
2024/01/01 02:10:22;;;;;;;52.20;30.48;;;;;;;;;;4981496;28;20080;-92
2024/01/01 02:12:49;;;;;;;43.17;27.63;;;;;;;;;;4966244;28;20042;-91
2024/01/01 02:15:15;;;;;;;49.00;27.52;;;;;;;;;;4964407;28;20037;-91
2024/01/01 02:17:41;;;;;;;50.38;25.60;;;;;;;;;;4965130;28;20045;-92
2024/01/01 02:20:07;;;;;;;41.72;25.85;;;;;;;;;;4981593;28;20079;-91
2024/01/01 02:22:40;;;;;;;35.33;22.25;;;;;;;;;;4965975;28;20033;-91
2024/01/01 02:25:07;;;;;;;44.60;23.08;;;;;;;;;;4981430;28;20038;-90
2024/01/01 02:27:34;;;;;;;35.92;21.73;;;;;;;;;;4978247;28;20058;-89
2024/01/01 02:30:00;;;;;;;34.00;22.02;;;;;;;;;;4976270;28;20097;-91
2024/01/01 02:32:27;;;;;;;37.72;21.10;;;;;;;;;;4979300;28;20128;-90
2024/01/01 02:34:53;;;;;;;31.80;19.30;;;;;;;;;;4962994;28;20050;-92
2024/01/01 02:37:19;;;;;;;34.50;21.88;;;;;;;;;;4977623;28;20028;-91
2024/01/01 02:39:45;;;;;;;30.25;19.73;;;;;;;;;;4967321;28;20037;-91
2024/01/01 02:42:11;;;;;;;45.75;24.45;;;;;;;;;;4996863;28;20034;-91
2024/01/01 02:44:37;;;;;;;41.08;24.73;;;;;;;;;;4963325;28;20042;-91
2024/01/01 02:47:03;;;;;;;41.00;24.40;;;;;;;;;;4964548;28;20042;-92
2024/01/01 02:49:29;;;;;;;34.83;24.92;;;;;;;;;;4965864;28;20049;-92
2024/01/01 02:51:55;;;;;;;35.25;24.42;;;;;;;;;;4981525;28;20050;-92
2024/01/01 02:54:21;;;;;;;43.25;25.90;;;;;;;;;;4960832;28;20069;-91
2024/01/01 02:56:48;;;;;;;32.88;21.98;;;;;;;;;;4961878;28;20045;-91
2024/01/01 02:59:14;;;;;;;31.95;22.10;;;;;;;;;;4974660;28;20516;-89
2024/01/01 03:01:40;;;;;;;32.72;22.00;;;;;;;;;;4959806;28;20563;-90
2024/01/01 03:04:06;;;;;;;28.08;19.10;;;;;;;;;;4978149;28;20399;-84
2024/01/01 03:06:32;;;;;;;31.98;21.98;;;;;;;;;;4963796;28;20164;-93
2024/01/01 03:08:58;;;;;;;29.67;20.45;;;;;;;;;;4995953;28;20041;-94
2024/01/01 03:11:27;;;;;;;32.10;21.50;;;;;;;;;;4974355;28;20040;-91
2024/01/01 03:13:53;;;;;;;35.13;20.80;;;;;;;;;;4993466;28;20087;-90
2024/01/01 03:16:19;;;;;;;38.05;23.25;;;;;;;;;;4962472;28;20037;-88
2024/01/01 03:18:45;;;;;;;40.55;25.65;;;;;;;;;;4978718;28;20182;-89
2024/01/01 03:21:11;;;;;;;33.30;21.20;;;;;;;;;;4980079;28;20124;-88
2024/01/01 03:23:37;;;;;;;36.38;20.48;;;;;;;;;;4973970;28;20046;-84
2024/01/01 03:26:04;;;;;;;39.80;23.90;;;;;;;;;;4972123;28;20045;-88
2024/01/01 03:28:31;;;;;;;45.65;24.63;;;;;;;;;;4973662;28;20045;-88
2024/01/01 03:30:57;;;;;;;51.75;28.05;;;;;;;;;;4995114;28;20049;-89
2024/01/01 03:33:23;;;;;;;41.58;23.67;;;;;;;;;;4959788;28;20042;-89
2024/01/01 03:35:49;;;;;;;42.03;23.92;;;;;;;;;;4977438;28;20073;-88
2024/01/01 03:38:16;;;;;;;36.50;20.58;;;;;;;;;;4956578;28;20041;-89
2024/01/01 03:40:42;;;;;;;33.83;18.50;;;;;;;;;;4957837;28;20129;-89
2024/01/01 03:43:08;;;;;;;31.88;16.10;;;;;;;;;;4963775;28;20478;-90
2024/01/01 03:45:34;;;;;;;29.58;17.25;;;;;;;;;;4964712;28;20084;-90
2024/01/01 03:48:03;;;;;;;35.35;20.58;;;;;;;;;;4964382;28;20437;-90
2024/01/01 03:50:29;;;;;;;32.95;17.13;;;;;;;;;;4977665;28;20057;-90
2024/01/01 03:52:56;;;;;;;26.00;14.88;;;;;;;;;;4962025;28;20046;-91
2024/01/01 03:55:22;;;;;;;29.65;14.35;;;;;;;;;;4976753;28;20879;-90
2024/01/01 03:57:48;;;;;;;25.08;14.05;;;;;;;;;;4962021;28;20044;-90
2024/01/01 04:00:15;;;;;;;24.35;12.25;;;;;;;;;;4962590;28;20379;-91
2024/01/01 04:02:41;;;;;;;26.02;14.43;;;;;;;;;;4978518;28;20111;-90
2024/01/01 04:05:08;;;;;;;24.85;13.55;;;;;;;;;;4993809;28;20484;-90
2024/01/01 04:07:34;;;;;;;35.17;18.63;;;;;;;;;;4976516;28;20046;-88
2024/01/01 04:10:00;;;;;;;30.35;15.30;;;;;;;;;;4978160;28;20040;-93
2024/01/01 04:12:26;;;;;;;29.83;16.95;;;;;;;;;;4963068;28;20622;-91
2024/01/01 04:14:53;;;;;;;26.20;14.30;;;;;;;;;;4960165;28;20044;-94
2024/01/01 04:17:19;;;;;;;29.92;15.88;;;;;;;;;;4993793;28;20038;-94
2024/01/01 04:19:47;;;;;;;25.17;11.57;;;;;;;;;;4978651;28;20050;-94
2024/01/01 04:22:18;;;;;;;28.33;13.75;;;;;;;;;;4964597;28;20041;-93
2024/01/01 04:24:44;;;;;;;23.33;11.68;;;;;;;;;;4984429;28;20387;-93
2024/01/01 04:27:10;;;;;;;26.00;11.93;;;;;;;;;;4985842;28;20042;-94
2024/01/01 04:29:36;;;;;;;18.95;10.35;;;;;;;;;;4984606;28;20148;-92
2024/01/01 04:32:03;;;;;;;24.00;12.10;;;;;;;;;;4983154;28;20033;-93
2024/01/01 04:34:29;;;;;;;22.75;11.35;;;;;;;;;;4977444;28;20065;-92
2024/01/01 04:36:55;;;;;;;17.10;8.68;;;;;;;;;;4994220;28;20183;-93
2024/01/01 04:39:21;;;;;;;22.13;10.95;;;;;;;;;;4979096;28;20546;-92
2024/01/01 04:41:47;;;;;;;22.02;11.10;;;;;;;;;;4980758;28;20123;-93
2024/01/01 04:44:13;;;;;;;24.42;10.02;;;;;;;;;;4966447;28;20030;-92
2024/01/01 04:46:39;;;;;;;27.23;11.73;;;;;;;;;;4982746;28;20049;-89
2024/01/01 04:49:05;;;;;;;18.73;8.50;;;;;;;;;;4965575;28;20396;-90
2024/01/01 04:51:31;;;;;;;19.60;7.88;;;;;;;;;;4964917;28;20089;-91
2024/01/01 04:53:57;;;;;;;17.50;8.35;;;;;;;;;;4979133;28;20044;-92
2024/01/01 04:56:23;;;;;;;17.50;8.07;;;;;;;;;;4961285;28;20046;-92
2024/01/01 04:58:51;;;;;;;19.58;6.70;;;;;;;;;;4995577;28;20052;-93
2024/01/01 05:01:17;;;;;;;18.20;6.97;;;;;;;;;;4995744;28;20492;-93
2024/01/01 05:03:43;;;;;;;20.77;8.27;;;;;;;;;;4964464;28;20038;-92
2024/01/01 05:06:09;;;;;;;21.63;7.00;;;;;;;;;;4963728;28;20080;-92
2024/01/01 05:08:35;;;;;;;17.13;7.15;;;;;;;;;;4982461;28;20041;-92
2024/01/01 05:11:05;;;;;;;16.77;7.63;;;;;;;;;;4963072;28;20125;-92
2024/01/01 05:13:31;;;;;;;16.67;6.38;;;;;;;;;;4979220;28;20533;-92
2024/01/01 05:15:57;;;;;;;17.55;6.97;;;;;;;;;;4994695;28;20037;-92
2024/01/01 05:18:23;;;;;;;15.40;6.70;;;;;;;;;;4976841;28;20046;-91
2024/01/01 05:20:49;;;;;;;16.10;6.78;;;;;;;;;;4977858;28;20584;-88
2024/01/01 05:23:15;;;;;;;15.90;6.53;;;;;;;;;;4991501;28;20046;-92
2024/01/01 05:25:41;;;;;;;12.30;5.70;;;;;;;;;;4974527;28;20042;-86
2024/01/01 05:28:08;;;;;;;17.50;6.13;;;;;;;;;;4971416;28;20095;-88
2024/01/01 05:30:35;;;;;;;11.90;5.53;;;;;;;;;;4977110;28;20037;-88
2024/01/01 05:33:02;;;;;;;14.45;6.18;;;;;;;;;;4974684;28;20076;-88
2024/01/01 05:35:28;;;;;;;19.20;6.00;;;;;;;;;;4961202;28;20044;-89
2024/01/01 05:37:56;;;;;;;17.17;6.32;;;;;;;;;;4977563;28;20042;-89
2024/01/01 05:40:22;;;;;;;14.35;5.68;;;;;;;;;;4975609;28;20049;-89
2024/01/01 05:42:49;;;;;;;17.08;7.10;;;;;;;;;;4974050;28;20081;-89
2024/01/01 05:45:15;;;;;;;14.35;5.45;;;;;;;;;;4975063;28;20507;-89
2024/01/01 05:47:41;;;;;;;16.65;5.85;;;;;;;;;;4985292;28;20038;-88
2024/01/01 05:50:07;;;;;;;17.55;5.60;;;;;;;;;;4977928;28;20054;-88
2024/01/01 05:52:33;;;;;;;14.93;5.63;;;;;;;;;;4978228;28;20729;-89
2024/01/01 05:54:59;;;;;;;12.45;5.63;;;;;;;;;;4975257;28;20042;-89
2024/01/01 05:57:25;;;;;;;16.83;5.40;;;;;;;;;;4973933;28;20030;-88
2024/01/01 05:59:51;;;;;;;16.10;5.63;;;;;;;;;;4957313;28;20068;-89
2024/01/01 06:02:17;;;;;;;14.73;5.93;;;;;;;;;;4957991;28;20048;-87
2024/01/01 06:04:44;;;;;;;15.45;5.70;;;;;;;;;;4987378;28;20441;-88
2024/01/01 06:07:10;;;;;;;21.25;6.25;;;;;;;;;;4988698;28;20042;-88
2024/01/01 06:09:36;;;;;;;16.00;5.68;;;;;;;;;;4975146;28;20049;-88
2024/01/01 06:12:02;;;;;;;12.40;5.40;;;;;;;;;;4974990;28;20485;-88
2024/01/01 06:14:28;;;;;;;19.85;5.05;;;;;;;;;;4967493;28;20038;-89
2024/01/01 06:16:54;;;;;;;14.57;5.63;;;;;;;;;;4955255;28;20041;-88
2024/01/01 06:19:20;;;;;;;13.90;5.03;;;;;;;;;;4955589;28;20482;-87
2024/01/01 06:21:46;;;;;;;11.45;4.70;;;;;;;;;;4974212;28;20037;-88
2024/01/01 06:24:15;;;;;;;15.40;4.75;;;;;;;;;;4974026;28;20108;-89
2024/01/01 06:26:42;;;;;;;15.77;5.38;;;;;;;;;;4973302;28;20453;-88
2024/01/01 06:29:08;;;;;;;12.20;4.82;;;;;;;;;;4972622;28;20038;-87
2024/01/01 06:31:34;;;;;;;12.95;3.85;;;;;;;;;;4989242;28;20124;-88
2024/01/01 06:34:02;;;;;;;11.57;4.10;;;;;;;;;;4977071;28;20489;-88
2024/01/01 06:36:28;;;;;;;11.73;4.80;;;;;;;;;;4988792;28;20048;-88
2024/01/01 06:38:54;;;;;;;13.25;4.30;;;;;;;;;;4957899;28;20042;-88
2024/01/01 06:41:20;;;;;;;15.05;4.43;;;;;;;;;;4963713;28;20092;-88
2024/01/01 06:43:46;;;;;;;14.00;4.78;;;;;;;;;;4991485;28;20050;-88
2024/01/01 06:46:15;;;;;;;11.73;4.20;;;;;;;;;;4961759;28;20042;-87
2024/01/01 06:48:41;;;;;;;13.63;4.70;;;;;;;;;;4971799;28;20037;-88
2024/01/01 06:51:11;;;;;;;15.95;5.05;;;;;;;;;;4972467;28;20875;-88
2024/01/01 06:53:37;;;;;;;14.82;5.50;;;;;;;;;;4959835;28;20052;-87
2024/01/01 06:56:03;;;;;;;12.23;4.25;;;;;;;;;;4976518;28;20044;-87
2024/01/01 06:58:29;;;;;;;10.02;4.25;;;;;;;;;;4975476;28;20378;-87
2024/01/01 07:00:59;;;;;;;8.60;3.72;;;;;;;;;;5008139;28;20469;-87
2024/01/01 07:03:25;;;;;;;18.50;4.50;;;;;;;;;;4988459;28;20080;-87
2024/01/01 07:05:51;;;;;;;20.80;4.57;;;;;;;;;;4994484;28;20523;-87
2024/01/01 07:08:17;;;;;;;13.75;3.40;;;;;;;;;;4977429;28;20473;-86
2024/01/01 07:10:43;;;;;;;14.02;3.63;;;;;;;;;;4976918;28;20040;-87
2024/01/01 07:13:09;;;;;;;10.20;3.90;;;;;;;;;;4983384;28;20030;-88
2024/01/01 07:15:35;;;;;;;10.30;4.00;;;;;;;;;;4961372;28;20569;-86
2024/01/01 07:18:01;;;;;;;13.40;5.28;;;;;;;;;;4978868;28;20393;-88
2024/01/01 07:20:27;;;;;;;15.23;3.90;;;;;;;;;;4974493;28;20468;-87
2024/01/01 07:22:53;;;;;;;15.95;5.00;;;;;;;;;;4987399;28;20141;-87
2024/01/01 07:25:20;;;;;;;13.75;5.50;;;;;;;;;;4970597;28;20125;-88
2024/01/01 07:27:46;;;;;;;12.70;4.63;;;;;;;;;;4971883;28;20038;-87
2024/01/01 07:30:14;;;;;;;15.23;4.88;;;;;;;;;;4991175;28;20038;-87
2024/01/01 07:32:40;;;;;;;14.07;3.95;;;;;;;;;;4978553;28;20045;-87
2024/01/01 07:35:08;;;;;;;12.77;4.97;;;;;;;;;;4970886;28;20038;-87
2024/01/01 07:37:34;;;;;;;20.13;4.80;;;;;;;;;;4973542;28;20049;-89
2024/01/01 07:40:01;;;;;;;13.95;4.45;;;;;;;;;;4974393;28;20041;-91
2024/01/01 07:42:27;;;;;;;16.73;4.65;;;;;;;;;;4978481;28;20038;-89
2024/01/01 07:44:53;;;;;;;13.27;4.90;;;;;;;;;;4963822;28;20052;-90
2024/01/01 07:47:20;;;;;;;17.85;5.35;;;;;;;;;;4993535;28;20048;-90
2024/01/01 07:49:46;;;;;;;16.48;3.92;;;;;;;;;;4970579;28;20559;-90
2024/01/01 07:52:17;;;;;;;13.32;4.63;;;;;;;;;;4975150;28;20046;-89
2024/01/01 07:54:43;;;;;;;14.38;3.63;;;;;;;;;;4961817;28;20048;-90
2024/01/01 07:57:09;;;;;;;18.05;4.07;;;;;;;;;;4980756;28;20075;-89
2024/01/01 07:59:35;;;;;;;10.32;4.03;;;;;;;;;;4982926;28;20048;-90
2024/01/01 08:02:01;;;;;;;12.23;3.05;;;;;;;;;;4968591;28;20108;-90
2024/01/01 08:04:28;;;;;;;11.98;2.78;;;;;;;;;;4996372;28;20116;-91
2024/01/01 08:06:54;;;;;;;6.57;2.50;;;;;;;;;;4982712;28;20022;-91
2024/01/01 08:09:20;;;;;;;3.03;1.40;;;;;;;;;;4983342;28;20053;-91
2024/01/01 08:11:46;;;;;;;4.88;1.55;;;;;;;;;;4968554;28;20052;-90
2024/01/01 08:14:12;;;;;;;6.85;1.60;;;;;;;;;;4976582;28;20397;-91
2024/01/01 08:16:38;;;;;;;3.53;1.30;;;;;;;;;;4961782;28;20045;-90
2024/01/01 08:19:04;;;;;;;3.53;1.05;;;;;;;;;;4964174;28;20129;-91
2024/01/01 08:21:30;;;;;;;2.78;1.08;;;;;;;;;;4979025;28;20119;-90
2024/01/01 08:23:56;;;;;;;4.13;1.95;;;;;;;;;;4979150;28;20125;-90
2024/01/01 08:26:23;;;;;;;4.90;1.00;;;;;;;;;;4992848;28;20081;-91
2024/01/01 08:28:51;;;;;;;6.55;1.50;;;;;;;;;;4996504;28;20034;-89
2024/01/01 08:31:18;;;;;;;5.32;1.17;;;;;;;;;;4978002;28;20456;-91
2024/01/01 08:33:45;;;;;;;4.30;1.17;;;;;;;;;;4966351;28;20076;-91
2024/01/01 08:36:11;;;;;;;3.20;1.15;;;;;;;;;;4977968;28;20041;-89
2024/01/01 08:38:37;;;;;;;4.88;0.93;;;;;;;;;;4975021;28;20125;-91
2024/01/01 08:41:04;;;;;;;4.18;1.30;;;;;;;;;;4977859;28;20054;-93
2024/01/01 08:43:31;;;;;;;3.80;1.25;;;;;;;;;;4982274;28;20038;-90
2024/01/01 08:46:00;;;;;;;3.13;1.35;;;;;;;;;;4978098;28;20103;-89
2024/01/01 08:48:26;;;;;;;1.92;1.13;;;;;;;;;;4980056;28;20535;-88
2024/01/01 08:50:52;;;;;;;6.93;1.98;;;;;;;;;;4993274;28;20053;-91
2024/01/01 08:53:18;;;;;;;4.70;1.42;;;;;;;;;;4966060;28;20072;-91
2024/01/01 08:55:45;;;;;;;6.57;1.30;;;;;;;;;;4980671;28;20038;-92
2024/01/01 08:58:11;;;;;;;4.90;1.63;;;;;;;;;;4980271;28;20488;-92
2024/01/01 09:00:37;;;;;;;4.50;1.60;;;;;;;;;;4973756;28;20071;-93
2024/01/01 09:03:03;;;;;;;4.43;1.52;;;;;;;;;;4970542;28;20034;-92
2024/01/01 09:05:29;;;;;;;3.92;1.63;;;;;;;;;;4961670;28;20073;-90
2024/01/01 09:07:55;;;;;;;6.10;1.77;;;;;;;;;;4975339;28;20413;-90
2024/01/01 09:10:22;;;;;;;5.28;2.10;;;;;;;;;;4974006;28;20437;-92
2024/01/01 09:12:48;;;;;;;9.30;2.95;;;;;;;;;;4980001;28;20042;-91
2024/01/01 09:15:15;;;;;;;5.47;1.83;;;;;;;;;;4996396;28;20049;-90
2024/01/01 09:17:43;;;;;;;12.05;2.47;;;;;;;;;;4980934;28;20076;-90
2024/01/01 09:20:09;;;;;;;8.93;1.77;;;;;;;;;;4969720;28;20125;-91
2024/01/01 09:22:35;;;;;;;9.77;2.13;;;;;;;;;;4967288;28;20049;-92
2024/01/01 09:25:02;;;;;;;4.57;1.55;;;;;;;;;;4980109;28;20030;-91
2024/01/01 09:27:29;;;;;;;7.57;2.30;;;;;;;;;;4968784;28;20042;-91
2024/01/01 09:29:55;;;;;;;6.10;1.52;;;;;;;;;;4982313;28;20045;-89
2024/01/01 09:32:21;;;;;;;6.53;1.60;;;;;;;;;;4992404;28;20436;-88
2024/01/01 09:34:47;;;;;;;6.55;1.35;;;;;;;;;;4974583;28;20049;-90
2024/01/01 09:37:13;;;;;;;5.43;1.83;;;;;;;;;;4956367;28;20048;-91
2024/01/01 09:39:39;;;;;;;5.30;1.50;;;;;;;;;;4962956;28;20049;-90
2024/01/01 09:42:05;;;;;;;3.78;1.80;;;;;;;;;;4975844;28;20038;-90
2024/01/01 09:44:32;;;;;;;6.55;1.80;;;;;;;;;;4971683;28;20069;-89
2024/01/01 09:46:58;;;;;;;5.13;1.20;;;;;;;;;;4972238;28;20050;-90
2024/01/01 09:49:24;;;;;;;4.60;1.40;;;;;;;;;;4958858;28;20046;-90
2024/01/01 09:51:51;;;;;;;6.43;1.65;;;;;;;;;;4970624;28;20054;-90
2024/01/01 09:54:17;;;;;;;6.68;0.82;;;;;;;;;;4976224;28;20068;-90
2024/01/01 09:56:43;;;;;;;6.07;1.92;;;;;;;;;;4975690;28;20095;-89
2024/01/01 09:59:10;;;;;;;2.42;1.20;;;;;;;;;;4969351;28;20556;-87
2024/01/01 10:01:38;;;;;;;4.55;2.15;;;;;;;;;;4976464;28;20325;-89
2024/01/01 10:04:07;;;;;;;4.13;1.42;;;;;;;;;;4978323;28;20128;-89
2024/01/01 10:06:37;;;;;;;6.53;2.25;;;;;;;;;;4974906;28;20050;-89
2024/01/01 10:09:10;;;;;;;4.68;1.70;;;;;;;;;;4978668;28;20049;-89
2024/01/01 10:11:42;;;;;;;9.10;1.65;;;;;;;;;;4979298;28;20049;-88
2024/01/01 10:14:08;;;;;;;3.47;1.58;;;;;;;;;;4972599;28;20037;-88
2024/01/01 10:16:34;;;;;;;6.40;2.13;;;;;;;;;;4974283;28;20061;-87
2024/01/01 10:19:01;;;;;;;6.10;2.22;;;;;;;;;;4973091;28;20089;-87
2024/01/01 10:21:31;;;;;;;5.03;1.63;;;;;;;;;;4974193;28;20108;-87
2024/01/01 10:23:58;;;;;;;8.60;2.05;;;;;;;;;;4973738;28;20045;-88
2024/01/01 10:26:24;;;;;;;12.52;1.85;;;;;;;;;;4970273;28;20041;-87
2024/01/01 10:28:50;;;;;;;6.50;1.67;;;;;;;;;;4985956;28;20082;-86
2024/01/01 10:31:16;;;;;;;9.20;1.80;;;;;;;;;;4988407;28;20065;-86
2024/01/01 10:33:43;;;;;;;7.32;1.75;;;;;;;;;;4958297;28;20037;-87
2024/01/01 10:36:11;;;;;;;6.55;1.67;;;;;;;;;;4977496;28;20033;-90
2024/01/01 10:38:38;;;;;;;6.47;1.85;;;;;;;;;;4973659;28;20496;-88
2024/01/01 10:41:06;;;;;;;7.88;1.83;;;;;;;;;;4972982;28;20070;-87
2024/01/01 10:43:34;;;;;;;12.57;3.28;;;;;;;;;;4973981;28;20038;-89
2024/01/01 10:46:04;;;;;;;7.20;2.45;;;;;;;;;;4995611;28;20436;-89
2024/01/01 10:48:36;;;;;;;6.72;2.08;;;;;;;;;;4991402;28;20096;-88
2024/01/01 10:51:02;;;;;;;15.52;2.42;;;;;;;;;;4993319;28;20050;-89
2024/01/01 10:53:48;;;;;;;14.70;2.63;;;;;;;;;;4971617;28;20056;-91
2024/01/01 10:56:20;;;;;;;13.57;2.53;;;;;;;;;;4994243;28;20084;-88
2024/01/01 10:59:02;;;;;;;5.35;1.80;;;;;;;;;;4977300;28;20049;-90
2024/01/01 11:01:29;;;;;;;13.00;2.55;;;;;;;;;;4975168;28;20042;-91
2024/01/01 11:03:56;;;;;;;9.75;2.08;;;;;;;;;;4993707;28;20044;-89
2024/01/01 11:06:33;;;;;;;6.32;1.60;;;;;;;;;;4976422;28;20052;-90
2024/01/01 11:09:19;;;;;;;10.98;2.45;;;;;;;;;;4970607;28;20061;-89
2024/01/01 11:11:48;;;;;;;11.15;2.50;;;;;;;;;;4989647;28;20037;-89
2024/01/01 11:14:23;;;;;;;38.05;16.42;;;;;;;;;;4972587;28;20038;-90
2024/01/01 11:16:51;;;;;;;27.27;13.02;;;;;;;;;;4969850;28;20037;-88
2024/01/01 11:19:35;;;;;;;17.15;2.70;;;;;;;;;;4979958;28;20044;-89
2024/01/01 11:22:20;;;;;;;18.17;3.88;;;8.30;99.90;;;;;;4973951;28;20137;-88
2024/01/01 11:24:47;;;;;;;12.00;3.40;;;;;;;;;;4977078;28;20132;-87
2024/01/01 11:27:25;;;;;;;17.00;3.33;;;;;;;;;;4977116;28;20120;-89
2024/01/01 11:29:51;;;;;;;15.35;3.00;;;;;;;;;;5003338;28;20045;-88
2024/01/01 11:32:19;;;;;;;20.55;2.67;;;;;;;;;;4958253;28;20512;-90
2024/01/01 11:35:03;;;;;;;19.25;3.00;;;;;;;;;;4997233;28;20068;-89
2024/01/01 11:37:29;;;;;;;13.00;2.85;;;;;;;;;;4982758;28;20045;-91
2024/01/01 11:39:59;;;;;;;16.40;2.78;;;;;;;;;;4980729;28;20398;-89
2024/01/01 11:42:25;;;;;;;14.63;2.72;;;;;;;;;;4982615;28;20490;-89
2024/01/01 11:45:04;;;;;;;17.55;3.30;;;;;;;;;;4966918;28;20073;-90
2024/01/01 11:47:30;;;;;;;28.65;4.28;;;;;;;;;;4977054;28;20041;-90
2024/01/01 11:49:57;;;;;;;21.50;2.78;;;;;;;;;;4995462;28;20042;-91
2024/01/01 11:52:23;;;;;;;18.13;3.45;;;;;;;;;;4995593;28;20066;-90
2024/01/01 11:54:49;;;;;;;29.05;4.28;;;;;;;;;;4968121;28;20124;-88
2024/01/01 11:57:15;;;;;;;11.70;2.58;;;;;;;;;;4979852;28;20038;-88
2024/01/01 11:59:41;;;;;;;17.98;2.63;;;;;;;;;;4982398;28;20065;-88
2024/01/01 12:02:10;;;;;;;17.27;2.58;;;;;;;;;;4969970;28;20049;-89
2024/01/01 12:04:36;;;;;;;12.90;2.38;;;;;;;;;;4984536;28;20097;-89
2024/01/01 12:07:02;;;;;;;20.13;3.47;;;;;;;;;;4963592;28;20045;-90
2024/01/01 12:09:28;;;;;;;10.80;2.25;;;;;;;;;;4963586;28;20435;-89
2024/01/01 12:12:12;;;;;;;9.93;1.77;;;;;;;;;;4996098;28;20034;-89
2024/01/01 12:14:39;;;;;;;8.05;2.55;;;;;;;;;;4978921;28;20041;-89
2024/01/01 12:17:08;;;;;;;11.40;2.58;;;;;;;;;;4967679;28;20121;-90
2024/01/01 12:19:34;;;;;;;17.77;1.85;;;;;;;;;;4980740;28;20125;-88
2024/01/01 12:22:00;;;;;;;7.78;1.63;;;;;;;;;;4981651;28;20077;-89
2024/01/01 12:24:26;;;;;;;9.65;2.08;;;;;;;;;;4979370;28;20076;-86
2024/01/01 12:27:01;;;;;;;9.93;2.08;;;;;;;;;;4977466;28;20606;-91
2024/01/01 12:29:29;;;;;;;8.90;1.55;;;;;;;;;;4978755;28;20045;-89
2024/01/01 12:31:55;;;;;;;7.43;1.40;;;;;;;;;;4991417;28;20046;-88
2024/01/01 12:34:21;;;;;;;10.35;2.05;;;;;;;;;;4974851;28;20033;-89
2024/01/01 12:36:48;;;;;;;7.25;1.50;;;;;;;;;;4977542;28;20041;-87
2024/01/01 12:39:18;;;;;;;18.58;2.00;;;;;;;;;;4974266;28;20726;-86
2024/01/01 12:41:45;;;;;;;10.38;2.05;;;;;;;;;;4991248;28;20050;-88
2024/01/01 12:44:11;;;;;;;13.18;2.13;;;;;;;;;;4986748;28;20050;-86
2024/01/01 12:46:37;;;;;;;22.13;2.75;;;;;;;;;;4977630;28;20120;-85
2024/01/01 12:49:05;;;;;;;15.00;2.22;;;;;;;;;;4988699;28;20500;-87
2024/01/01 12:51:31;;;;;;;14.20;2.15;;;;;;;;;;4990639;28;20072;-88
2024/01/01 12:53:58;;;;;;;14.70;2.35;;;;;;;;;;4974746;28;20042;-88
2024/01/01 12:56:24;;;;;;;11.23;2.55;;;;;;;;;;4972946;28;20042;-88
2024/01/01 12:58:51;;;;;;;11.27;2.53;;;;;;;;;;4978832;28;20088;-88
2024/01/01 13:01:17;;;;;;;10.93;2.10;;;;;;;;;;4990602;28;20135;-88
2024/01/01 13:03:44;;;;;;;11.02;1.77;;;;;;;;;;4991693;28;20046;-74
2024/01/01 13:06:14;;;;;;;11.32;2.75;;;;;;;;;;4999956;28;20120;-73
2024/01/01 13:08:41;;;;;;;6.00;1.38;;;;;;;;;;4974097;28;20049;-73
2024/01/01 13:11:07;;;;;;;14.00;2.45;;;;;;;;;;4975169;28;20064;-75
2024/01/01 13:13:34;;;;;;;7.40;1.48;;;;;;;;;;4985121;28;20152;-73
2024/01/01 13:16:01;;;;;;;11.30;1.75;;;;;;;;;;4981356;28;20040;-73
2024/01/01 13:18:27;;;;;;;7.25;1.55;;;;;;;;;;4977825;28;20064;-74
2024/01/01 13:20:53;;;;;;;12.57;2.15;;;;;;;;;;4955003;28;20057;-74
2024/01/01 13:23:19;;;;;;;16.67;2.20;;;;;;;;;;4969939;28;20056;-75
2024/01/01 13:25:47;;;;;;;8.57;1.88;;;;;;;;;;4976903;28;20139;-74
2024/01/01 13:28:13;;;;;;;18.83;2.35;;;;;;;;;;4991671;28;20042;-74
2024/01/01 13:30:40;;;;;;;15.25;2.38;;;;;;;;;;4992577;28;20042;-75
2024/01/01 13:33:06;;;;;;;12.38;2.30;;;;;;;;;;4991886;28;20449;-73
2024/01/01 13:35:33;;;;;;;10.23;2.05;;;;;;;;;;4991571;28;20049;-74
2024/01/01 13:38:00;;;;;;;9.90;2.28;;;;;;;;;;4981209;28;20050;-74
2024/01/01 13:40:27;;;;;;;9.32;1.75;;;;;;;;;;4967370;28;20045;-75
2024/01/01 13:42:53;;;;;;;10.55;1.80;;;;;;;;;;4976692;28;20042;-75
2024/01/01 13:45:20;;;;;;;7.78;1.38;;;;;;;;;;4973294;28;20049;-75
2024/01/01 13:47:49;;;;;;;13.82;2.72;;;;;;;;;;4992240;28;20037;-75
2024/01/01 13:50:17;;;;;;;14.43;3.28;;;;;;;;;;4988293;28;20030;-76
2024/01/01 13:52:44;;;;;;;16.50;4.40;;;;;;;;;;4988540;28;20050;-75
2024/01/01 13:55:10;;;;;;;11.93;2.25;;;;;;;;;;4976816;28;20056;-75
2024/01/01 13:57:36;;;;;;;10.85;2.00;;;;;;;;;;4980260;28;20493;-75
2024/01/01 14:00:03;;;;;;;11.15;2.20;;;;;;;;;;4989940;28;20044;-76
2024/01/01 14:02:29;;;;;;;9.60;1.83;;;;;;;;;;4994082;28;20081;-75
2024/01/01 14:04:55;;;;;;;7.93;1.45;;;;;;;;;;4995344;28;20100;-74
2024/01/01 14:07:22;;;;;;;12.73;1.90;;;;;;;;;;4962664;28;20041;-75
2024/01/01 14:09:48;;;;;;;6.45;1.35;;;;;;;;;;4989772;28;20038;-75
2024/01/01 14:12:14;;;;;;;8.52;3.13;;;;;;;;;;4991031;28;20129;-75
2024/01/01 14:14:43;;;;;;;12.93;2.25;;;;;;;;;;4989319;28;20575;-75
2024/01/01 14:17:09;;;;;;;8.32;1.88;;;;;;;;;;4989772;28;20073;-75
2024/01/01 14:19:35;;;;;;;16.70;3.00;;;;;;;;;;4974002;28;20034;-75
2024/01/01 14:22:02;;;;;;;7.47;2.25;;;;;;;;;;4989318;28;20432;-77
2024/01/01 14:24:28;;;;;;;12.00;2.25;;;;;;;;;;4992884;28;20579;-75
2024/01/01 14:26:55;;;;;;;18.58;3.78;;;;;;;;;;4973028;28;20038;-75